sensor_id;sensor_type;location;lat;lon;timestamp;P1;durP1;ratioP1;P2;durP2;ratioP2
4096;SDS011;2062;50.694;7.246;2022-07-29T00:00:06;4.50;;;1.80;;
4096;SDS011;2062;50.694;7.246;2022-07-29T00:02:34;4.32;;;1.70;;
4096;SDS011;2062;50.694;7.246;2022-07-29T00:05:02;4.22;;;1.90;;
4096;SDS011;2062;50.694;7.246;2022-07-29T00:07:30;5.60;;;1.73;;
4096;SDS011;2062;50.694;7.246;2022-07-29T00:09:57;5.00;;;2.10;;
4096;SDS011;2062;50.694;7.246;2022-07-29T00:12:24;4.27;;;1.63;;
4096;SDS011;2062;50.694;7.246;2022-07-29T00:14:51;4.55;;;1.70;;
4096;SDS011;2062;50.694;7.246;2022-07-29T00:17:18;7.63;;;2.10;;
4096;SDS011;2062;50.694;7.246;2022-07-29T00:19:45;5.45;;;1.90;;
4096;SDS011;2062;50.694;7.246;2022-07-29T00:22:13;5.18;;;1.98;;
4096;SDS011;2062;50.694;7.246;2022-07-29T00:24:40;5.17;;;1.70;;
4096;SDS011;2062;50.694;7.246;2022-07-29T00:27:07;5.95;;;2.00;;
4096;SDS011;2062;50.694;7.246;2022-07-29T00:29:33;4.65;;;2.03;;
4096;SDS011;2062;50.694;7.246;2022-07-29T00:32:00;4.53;;;2.00;;
4096;SDS011;2062;50.694;7.246;2022-07-29T00:34:27;5.30;;;2.03;;
4096;SDS011;2062;50.694;7.246;2022-07-29T00:37:13;4.20;;;1.70;;
4096;SDS011;2062;50.694;7.246;2022-07-29T00:39:40;5.00;;;1.98;;
4096;SDS011;2062;50.694;7.246;2022-07-29T00:42:06;5.82;;;2.20;;
4096;SDS011;2062;50.694;7.246;2022-07-29T00:44:36;4.18;;;1.90;;
4096;SDS011;2062;50.694;7.246;2022-07-29T00:47:03;5.13;;;1.92;;
4096;SDS011;2062;50.694;7.246;2022-07-29T00:49:31;4.67;;;1.83;;
4096;SDS011;2062;50.694;7.246;2022-07-29T00:51:58;4.18;;;1.90;;
4096;SDS011;2062;50.694;7.246;2022-07-29T00:54:28;4.68;;;2.00;;
4096;SDS011;2062;50.694;7.246;2022-07-29T00:56:56;4.28;;;1.90;;
4096;SDS011;2062;50.694;7.246;2022-07-29T00:59:24;3.88;;;1.80;;
4096;SDS011;2062;50.694;7.246;2022-07-29T01:01:51;4.00;;;2.00;;
4096;SDS011;2062;50.694;7.246;2022-07-29T01:04:18;4.72;;;2.20;;
4096;SDS011;2062;50.694;7.246;2022-07-29T01:06:46;5.82;;;2.22;;
4096;SDS011;2062;50.694;7.246;2022-07-29T01:09:13;4.78;;;1.92;;
4096;SDS011;2062;50.694;7.246;2022-07-29T01:11:43;5.65;;;1.98;;
4096;SDS011;2062;50.694;7.246;2022-07-29T01:14:13;4.77;;;1.60;;
4096;SDS011;2062;50.694;7.246;2022-07-29T01:16:42;4.40;;;1.70;;
4096;SDS011;2062;50.694;7.246;2022-07-29T01:19:18;4.40;;;2.15;;
4096;SDS011;2062;50.694;7.246;2022-07-29T01:22:10;4.57;;;2.00;;
4096;SDS011;2062;50.694;7.246;2022-07-29T01:24:57;4.28;;;1.83;;
4096;SDS011;2062;50.694;7.246;2022-07-29T01:27:41;6.17;;;2.00;;
4096;SDS011;2062;50.694;7.246;2022-07-29T01:30:14;6.50;;;1.88;;
4096;SDS011;2062;50.694;7.246;2022-07-29T01:32:42;5.30;;;2.03;;
4096;SDS011;2062;50.694;7.246;2022-07-29T01:35:15;5.07;;;1.85;;
4096;SDS011;2062;50.694;7.246;2022-07-29T01:37:49;3.97;;;1.98;;
4096;SDS011;2062;50.694;7.246;2022-07-29T01:40:22;4.07;;;2.00;;
4096;SDS011;2062;50.694;7.246;2022-07-29T01:42:52;4.90;;;1.85;;
4096;SDS011;2062;50.694;7.246;2022-07-29T01:45:23;4.53;;;2.00;;
4096;SDS011;2062;50.694;7.246;2022-07-29T01:47:56;5.18;;;2.13;;
4096;SDS011;2062;50.694;7.246;2022-07-29T01:50:26;5.53;;;2.22;;
4096;SDS011;2062;50.694;7.246;2022-07-29T01:53:00;5.20;;;1.87;;
4096;SDS011;2062;50.694;7.246;2022-07-29T01:55:29;4.35;;;1.73;;
4096;SDS011;2062;50.694;7.246;2022-07-29T01:58:00;4.10;;;1.80;;
4096;SDS011;2062;50.694;7.246;2022-07-29T02:00:31;7.78;;;2.00;;
4096;SDS011;2062;50.694;7.246;2022-07-29T02:02:59;4.40;;;1.90;;
4096;SDS011;2062;50.694;7.246;2022-07-29T02:05:31;7.13;;;1.93;;
4096;SDS011;2062;50.694;7.246;2022-07-29T02:08:00;5.38;;;1.73;;
4096;SDS011;2062;50.694;7.246;2022-07-29T02:10:30;4.47;;;1.90;;
4096;SDS011;2062;50.694;7.246;2022-07-29T02:12:58;5.03;;;2.17;;
4096;SDS011;2062;50.694;7.246;2022-07-29T02:15:28;4.65;;;1.90;;
4096;SDS011;2062;50.694;7.246;2022-07-29T02:17:59;4.30;;;1.90;;
4096;SDS011;2062;50.694;7.246;2022-07-29T02:20:30;4.35;;;1.75;;
4096;SDS011;2062;50.694;7.246;2022-07-29T02:22:58;4.95;;;1.85;;
4096;SDS011;2062;50.694;7.246;2022-07-29T02:25:26;4.85;;;1.85;;
4096;SDS011;2062;50.694;7.246;2022-07-29T02:27:55;5.72;;;1.90;;
4096;SDS011;2062;50.694;7.246;2022-07-29T02:30:23;4.60;;;1.83;;
4096;SDS011;2062;50.694;7.246;2022-07-29T02:32:52;4.43;;;1.80;;
4096;SDS011;2062;50.694;7.246;2022-07-29T02:35:20;4.45;;;1.73;;
4096;SDS011;2062;50.694;7.246;2022-07-29T02:37:48;8.50;;;2.08;;
4096;SDS011;2062;50.694;7.246;2022-07-29T02:40:37;4.80;;;1.90;;
4096;SDS011;2062;50.694;7.246;2022-07-29T02:43:05;4.83;;;1.97;;
4096;SDS011;2062;50.694;7.246;2022-07-29T02:45:34;5.20;;;1.65;;
4096;SDS011;2062;50.694;7.246;2022-07-29T02:48:03;5.78;;;2.30;;
4096;SDS011;2062;50.694;7.246;2022-07-29T02:50:36;3.92;;;1.75;;
4096;SDS011;2062;50.694;7.246;2022-07-29T02:53:07;5.60;;;2.10;;
4096;SDS011;2062;50.694;7.246;2022-07-29T02:55:40;4.93;;;1.83;;
4096;SDS011;2062;50.694;7.246;2022-07-29T02:58:14;4.70;;;1.90;;
4096;SDS011;2062;50.694;7.246;2022-07-29T03:00:51;4.78;;;1.83;;
4096;SDS011;2062;50.694;7.246;2022-07-29T03:03:20;4.40;;;1.95;;
4096;SDS011;2062;50.694;7.246;2022-07-29T03:05:48;5.43;;;2.28;;
4096;SDS011;2062;50.694;7.246;2022-07-29T03:08:15;4.57;;;1.83;;
4096;SDS011;2062;50.694;7.246;2022-07-29T03:10:43;5.15;;;1.90;;
4096;SDS011;2062;50.694;7.246;2022-07-29T03:13:12;4.35;;;2.05;;
4096;SDS011;2062;50.694;7.246;2022-07-29T03:15:41;6.75;;;1.95;;
4096;SDS011;2062;50.694;7.246;2022-07-29T03:18:09;4.47;;;2.00;;
4096;SDS011;2062;50.694;7.246;2022-07-29T03:20:38;4.83;;;1.97;;
4096;SDS011;2062;50.694;7.246;2022-07-29T03:23:05;6.05;;;2.05;;
4096;SDS011;2062;50.694;7.246;2022-07-29T03:25:35;5.35;;;2.17;;
4096;SDS011;2062;50.694;7.246;2022-07-29T03:28:02;4.85;;;1.75;;
4096;SDS011;2062;50.694;7.246;2022-07-29T03:30:29;4.13;;;1.90;;
4096;SDS011;2062;50.694;7.246;2022-07-29T03:32:55;6.40;;;1.80;;
4096;SDS011;2062;50.694;7.246;2022-07-29T03:35:22;4.18;;;1.80;;
4096;SDS011;2062;50.694;7.246;2022-07-29T03:37:51;4.80;;;2.00;;
4096;SDS011;2062;50.694;7.246;2022-07-29T03:40:19;5.25;;;1.90;;
4096;SDS011;2062;50.694;7.246;2022-07-29T03:42:49;4.43;;;1.95;;
4096;SDS011;2062;50.694;7.246;2022-07-29T03:45:18;4.90;;;2.00;;
4096;SDS011;2062;50.694;7.246;2022-07-29T03:47:48;4.28;;;1.92;;
4096;SDS011;2062;50.694;7.246;2022-07-29T03:50:18;4.38;;;2.25;;
4096;SDS011;2062;50.694;7.246;2022-07-29T03:52:47;4.63;;;2.08;;
4096;SDS011;2062;50.694;7.246;2022-07-29T03:55:16;6.05;;;2.08;;
4096;SDS011;2062;50.694;7.246;2022-07-29T03:57:44;4.17;;;1.70;;
4096;SDS011;2062;50.694;7.246;2022-07-29T04:00:12;4.38;;;1.60;;
4096;SDS011;2062;50.694;7.246;2022-07-29T04:02:41;4.57;;;1.92;;
4096;SDS011;2062;50.694;7.246;2022-07-29T04:05:13;4.78;;;2.00;;
4096;SDS011;2062;50.694;7.246;2022-07-29T04:07:42;5.45;;;2.25;;
4096;SDS011;2062;50.694;7.246;2022-07-29T04:10:09;4.40;;;1.80;;
4096;SDS011;2062;50.694;7.246;2022-07-29T04:12:38;4.95;;;1.92;;
4096;SDS011;2062;50.694;7.246;2022-07-29T04:15:05;4.82;;;1.80;;
4096;SDS011;2062;50.694;7.246;2022-07-29T04:17:32;4.60;;;2.10;;
4096;SDS011;2062;50.694;7.246;2022-07-29T04:19:59;4.43;;;1.90;;
4096;SDS011;2062;50.694;7.246;2022-07-29T04:22:26;4.87;;;1.80;;
4096;SDS011;2062;50.694;7.246;2022-07-29T04:24:53;5.43;;;2.00;;
4096;SDS011;2062;50.694;7.246;2022-07-29T04:27:20;4.82;;;2.17;;
4096;SDS011;2062;50.694;7.246;2022-07-29T04:29:48;4.95;;;1.80;;
4096;SDS011;2062;50.694;7.246;2022-07-29T04:32:15;4.78;;;2.05;;
4096;SDS011;2062;50.694;7.246;2022-07-29T04:34:42;4.50;;;1.70;;
4096;SDS011;2062;50.694;7.246;2022-07-29T04:37:11;4.47;;;1.70;;
4096;SDS011;2062;50.694;7.246;2022-07-29T04:39:38;5.32;;;2.10;;
4096;SDS011;2062;50.694;7.246;2022-07-29T04:42:05;5.57;;;2.08;;
4096;SDS011;2062;50.694;7.246;2022-07-29T04:44:32;6.55;;;1.95;;
4096;SDS011;2062;50.694;7.246;2022-07-29T04:47:00;5.47;;;2.10;;
4096;SDS011;2062;50.694;7.246;2022-07-29T04:56:11;4.95;;;1.80;;
4096;SDS011;2062;50.694;7.246;2022-07-29T04:58:38;5.18;;;1.77;;
4096;SDS011;2062;50.694;7.246;2022-07-29T05:01:04;4.40;;;1.70;;
4096;SDS011;2062;50.694;7.246;2022-07-29T05:03:32;5.13;;;2.20;;
4096;SDS011;2062;50.694;7.246;2022-07-29T05:05:59;4.97;;;1.73;;
4096;SDS011;2062;50.694;7.246;2022-07-29T05:08:26;4.30;;;1.80;;
4096;SDS011;2062;50.694;7.246;2022-07-29T05:10:53;4.05;;;1.77;;
4096;SDS011;2062;50.694;7.246;2022-07-29T05:13:20;4.57;;;1.87;;
4096;SDS011;2062;50.694;7.246;2022-07-29T05:15:46;4.38;;;1.95;;
4096;SDS011;2062;50.694;7.246;2022-07-29T05:18:14;5.90;;;2.00;;
4096;SDS011;2062;50.694;7.246;2022-07-29T05:20:42;4.50;;;1.70;;
4096;SDS011;2062;50.694;7.246;2022-07-29T05:23:09;5.38;;;1.80;;
4096;SDS011;2062;50.694;7.246;2022-07-29T05:25:37;4.50;;;2.00;;
4096;SDS011;2062;50.694;7.246;2022-07-29T05:28:04;4.07;;;1.80;;
4096;SDS011;2062;50.694;7.246;2022-07-29T05:30:31;6.07;;;1.95;;
4096;SDS011;2062;50.694;7.246;2022-07-29T05:32:58;5.75;;;2.10;;
4096;SDS011;2062;50.694;7.246;2022-07-29T05:35:25;4.07;;;1.77;;
4096;SDS011;2062;50.694;7.246;2022-07-29T05:37:53;4.57;;;1.97;;
4096;SDS011;2062;50.694;7.246;2022-07-29T05:40:20;4.35;;;1.83;;
4096;SDS011;2062;50.694;7.246;2022-07-29T05:42:47;3.97;;;1.88;;
4096;SDS011;2062;50.694;7.246;2022-07-29T05:45:14;4.00;;;1.70;;
4096;SDS011;2062;50.694;7.246;2022-07-29T05:47:40;4.85;;;1.90;;
4096;SDS011;2062;50.694;7.246;2022-07-29T05:50:08;4.30;;;1.87;;
4096;SDS011;2062;50.694;7.246;2022-07-29T05:52:35;5.50;;;1.83;;
4096;SDS011;2062;50.694;7.246;2022-07-29T05:55:03;4.80;;;2.03;;
4096;SDS011;2062;50.694;7.246;2022-07-29T05:57:30;5.05;;;2.10;;
4096;SDS011;2062;50.694;7.246;2022-07-29T05:59:58;5.15;;;2.30;;
4096;SDS011;2062;50.694;7.246;2022-07-29T06:02:25;4.07;;;1.77;;
4096;SDS011;2062;50.694;7.246;2022-07-29T06:04:52;5.63;;;2.05;;
4096;SDS011;2062;50.694;7.246;2022-07-29T06:07:18;5.15;;;2.15;;
4096;SDS011;2062;50.694;7.246;2022-07-29T06:09:45;5.03;;;2.05;;
4096;SDS011;2062;50.694;7.246;2022-07-29T06:12:14;4.45;;;1.90;;
4096;SDS011;2062;50.694;7.246;2022-07-29T06:14:40;4.70;;;1.83;;
4096;SDS011;2062;50.694;7.246;2022-07-29T06:17:07;5.13;;;1.85;;
4096;SDS011;2062;50.694;7.246;2022-07-29T06:19:36;4.25;;;2.00;;
4096;SDS011;2062;50.694;7.246;2022-07-29T06:22:03;5.25;;;2.38;;
4096;SDS011;2062;50.694;7.246;2022-07-29T06:24:30;4.95;;;1.95;;
4096;SDS011;2062;50.694;7.246;2022-07-29T06:26:57;7.03;;;2.27;;
4096;SDS011;2062;50.694;7.246;2022-07-29T06:29:25;5.43;;;1.90;;
4096;SDS011;2062;50.694;7.246;2022-07-29T06:31:52;4.38;;;1.92;;
4096;SDS011;2062;50.694;7.246;2022-07-29T06:34:19;6.18;;;2.30;;
4096;SDS011;2062;50.694;7.246;2022-07-29T06:36:46;4.95;;;2.08;;
4096;SDS011;2062;50.694;7.246;2022-07-29T06:39:14;4.77;;;1.83;;
4096;SDS011;2062;50.694;7.246;2022-07-29T06:41:41;4.38;;;1.92;;
4096;SDS011;2062;50.694;7.246;2022-07-29T06:44:08;5.93;;;2.05;;
4096;SDS011;2062;50.694;7.246;2022-07-29T06:46:37;6.22;;;2.13;;
4096;SDS011;2062;50.694;7.246;2022-07-29T06:49:03;5.85;;;2.08;;
4096;SDS011;2062;50.694;7.246;2022-07-29T06:51:30;4.83;;;2.27;;
4096;SDS011;2062;50.694;7.246;2022-07-29T06:53:57;5.00;;;2.28;;
4096;SDS011;2062;50.694;7.246;2022-07-29T06:56:25;5.07;;;2.40;;
4096;SDS011;2062;50.694;7.246;2022-07-29T06:58:52;5.10;;;2.15;;
4096;SDS011;2062;50.694;7.246;2022-07-29T07:01:19;5.28;;;2.03;;
4096;SDS011;2062;50.694;7.246;2022-07-29T07:03:47;5.17;;;1.70;;
4096;SDS011;2062;50.694;7.246;2022-07-29T07:06:14;6.00;;;2.10;;
4096;SDS011;2062;50.694;7.246;2022-07-29T07:08:41;4.65;;;2.05;;
4096;SDS011;2062;50.694;7.246;2022-07-29T07:11:08;5.07;;;2.30;;
4096;SDS011;2062;50.694;7.246;2022-07-29T07:13:35;5.50;;;1.98;;
4096;SDS011;2062;50.694;7.246;2022-07-29T07:16:02;4.87;;;2.00;;
4096;SDS011;2062;50.694;7.246;2022-07-29T07:18:29;4.30;;;2.15;;
4096;SDS011;2062;50.694;7.246;2022-07-29T07:20:58;5.68;;;2.20;;
4096;SDS011;2062;50.694;7.246;2022-07-29T07:23:25;5.53;;;2.15;;
4096;SDS011;2062;50.694;7.246;2022-07-29T07:25:52;4.38;;;1.98;;
4096;SDS011;2062;50.694;7.246;2022-07-29T07:28:19;6.87;;;1.90;;
4096;SDS011;2062;50.694;7.246;2022-07-29T07:30:46;5.20;;;1.90;;
4096;SDS011;2062;50.694;7.246;2022-07-29T07:33:13;4.93;;;2.00;;
4096;SDS011;2062;50.694;7.246;2022-07-29T07:35:40;3.97;;;1.70;;
4096;SDS011;2062;50.694;7.246;2022-07-29T07:38:08;7.82;;;2.17;;
4096;SDS011;2062;50.694;7.246;2022-07-29T07:40:35;6.23;;;2.00;;
4096;SDS011;2062;50.694;7.246;2022-07-29T07:43:02;7.15;;;2.00;;
4096;SDS011;2062;50.694;7.246;2022-07-29T07:45:29;6.93;;;2.20;;
4096;SDS011;2062;50.694;7.246;2022-07-29T07:47:57;4.97;;;1.98;;
4096;SDS011;2062;50.694;7.246;2022-07-29T07:50:24;6.18;;;2.13;;
4096;SDS011;2062;50.694;7.246;2022-07-29T07:52:52;5.67;;;1.93;;
4096;SDS011;2062;50.694;7.246;2022-07-29T07:55:21;5.32;;;1.80;;
4096;SDS011;2062;50.694;7.246;2022-07-29T07:57:48;4.70;;;1.98;;
4096;SDS011;2062;50.694;7.246;2022-07-29T08:00:15;4.80;;;1.98;;
4096;SDS011;2062;50.694;7.246;2022-07-29T08:02:43;10.40;;;2.53;;
4096;SDS011;2062;50.694;7.246;2022-07-29T08:05:11;5.13;;;1.90;;
4096;SDS011;2062;50.694;7.246;2022-07-29T08:07:41;4.97;;;2.08;;
4096;SDS011;2062;50.694;7.246;2022-07-29T08:10:09;5.68;;;2.15;;
4096;SDS011;2062;50.694;7.246;2022-07-29T08:12:37;4.78;;;1.80;;
4096;SDS011;2062;50.694;7.246;2022-07-29T08:15:05;5.28;;;2.00;;
4096;SDS011;2062;50.694;7.246;2022-07-29T08:17:33;6.90;;;2.10;;
4096;SDS011;2062;50.694;7.246;2022-07-29T08:20:00;7.75;;;2.05;;
4096;SDS011;2062;50.694;7.246;2022-07-29T08:22:27;10.75;;;1.80;;
4096;SDS011;2062;50.694;7.246;2022-07-29T08:24:54;6.72;;;1.80;;
4096;SDS011;2062;50.694;7.246;2022-07-29T08:27:21;11.05;;;2.70;;
4096;SDS011;2062;50.694;7.246;2022-07-29T08:29:50;5.90;;;2.10;;
4096;SDS011;2062;50.694;7.246;2022-07-29T08:32:16;7.68;;;2.15;;
4096;SDS011;2062;50.694;7.246;2022-07-29T08:34:43;8.00;;;1.92;;
4096;SDS011;2062;50.694;7.246;2022-07-29T08:37:11;10.30;;;2.38;;
4096;SDS011;2062;50.694;7.246;2022-07-29T08:39:38;8.85;;;2.00;;
4096;SDS011;2062;50.694;7.246;2022-07-29T08:42:05;9.23;;;2.40;;
4096;SDS011;2062;50.694;7.246;2022-07-29T08:44:32;6.93;;;2.13;;
4096;SDS011;2062;50.694;7.246;2022-07-29T08:47:01;5.95;;;1.90;;
4096;SDS011;2062;50.694;7.246;2022-07-29T08:49:30;7.30;;;2.05;;
4096;SDS011;2062;50.694;7.246;2022-07-29T08:51:58;5.65;;;2.30;;
4096;SDS011;2062;50.694;7.246;2022-07-29T08:54:26;9.27;;;2.40;;
4096;SDS011;2062;50.694;7.246;2022-07-29T08:56:54;8.10;;;2.50;;
4096;SDS011;2062;50.694;7.246;2022-07-29T08:59:22;7.85;;;2.10;;
4096;SDS011;2062;50.694;7.246;2022-07-29T09:01:52;7.63;;;2.08;;
4096;SDS011;2062;50.694;7.246;2022-07-29T09:04:21;8.45;;;2.22;;
4096;SDS011;2062;50.694;7.246;2022-07-29T09:06:51;8.25;;;2.10;;
4096;SDS011;2062;50.694;7.246;2022-07-29T09:09:19;9.07;;;2.20;;
4096;SDS011;2062;50.694;7.246;2022-07-29T09:11:47;8.07;;;2.13;;
4096;SDS011;2062;50.694;7.246;2022-07-29T09:14:14;10.57;;;2.13;;
4096;SDS011;2062;50.694;7.246;2022-07-29T09:16:48;9.57;;;2.35;;
4096;SDS011;2062;50.694;7.246;2022-07-29T09:19:22;5.95;;;2.10;;
4096;SDS011;2062;50.694;7.246;2022-07-29T09:21:50;6.17;;;2.03;;
4096;SDS011;2062;50.694;7.246;2022-07-29T09:24:24;5.18;;;2.08;;
4096;SDS011;2062;50.694;7.246;2022-07-29T09:26:53;8.88;;;2.20;;
4096;SDS011;2062;50.694;7.246;2022-07-29T09:29:22;8.25;;;2.20;;
4096;SDS011;2062;50.694;7.246;2022-07-29T09:31:50;8.73;;;2.35;;
4096;SDS011;2062;50.694;7.246;2022-07-29T09:34:22;6.63;;;2.10;;
4096;SDS011;2062;50.694;7.246;2022-07-29T09:36:51;5.97;;;2.10;;
4096;SDS011;2062;50.694;7.246;2022-07-29T09:39:26;6.45;;;2.17;;
4096;SDS011;2062;50.694;7.246;2022-07-29T09:41:56;6.22;;;2.50;;
4096;SDS011;2062;50.694;7.246;2022-07-29T09:44:24;5.72;;;2.20;;
4096;SDS011;2062;50.694;7.246;2022-07-29T09:46:54;7.13;;;2.20;;
4096;SDS011;2062;50.694;7.246;2022-07-29T09:49:24;5.88;;;2.40;;
4096;SDS011;2062;50.694;7.246;2022-07-29T09:52:04;8.23;;;2.53;;
4096;SDS011;2062;50.694;7.246;2022-07-29T09:54:32;6.47;;;2.25;;
4096;SDS011;2062;50.694;7.246;2022-07-29T09:57:02;5.63;;;2.10;;
4096;SDS011;2062;50.694;7.246;2022-07-29T09:59:30;5.97;;;1.93;;
4096;SDS011;2062;50.694;7.246;2022-07-29T10:01:57;6.60;;;2.33;;
4096;SDS011;2062;50.694;7.246;2022-07-29T10:04:37;7.30;;;2.13;;
4096;SDS011;2062;50.694;7.246;2022-07-29T10:07:04;5.75;;;2.20;;
4096;SDS011;2062;50.694;7.246;2022-07-29T10:09:32;6.22;;;2.50;;
4096;SDS011;2062;50.694;7.246;2022-07-29T10:12:06;8.13;;;2.30;;
4096;SDS011;2062;50.694;7.246;2022-07-29T10:14:36;5.97;;;2.03;;
4096;SDS011;2062;50.694;7.246;2022-07-29T10:17:04;7.20;;;2.47;;
4096;SDS011;2062;50.694;7.246;2022-07-29T10:19:32;7.70;;;2.33;;
4096;SDS011;2062;50.694;7.246;2022-07-29T10:22:02;8.70;;;2.80;;
4096;SDS011;2062;50.694;7.246;2022-07-29T10:24:30;6.57;;;2.43;;
4096;SDS011;2062;50.694;7.246;2022-07-29T10:26:59;7.57;;;2.42;;
4096;SDS011;2062;50.694;7.246;2022-07-29T10:29:27;6.40;;;2.20;;
4096;SDS011;2062;50.694;7.246;2022-07-29T10:32:00;6.88;;;2.33;;
4096;SDS011;2062;50.694;7.246;2022-07-29T10:34:36;5.85;;;2.53;;
4096;SDS011;2062;50.694;7.246;2022-07-29T10:37:19;5.83;;;2.20;;
4096;SDS011;2062;50.694;7.246;2022-07-29T10:39:55;5.70;;;2.10;;
4096;SDS011;2062;50.694;7.246;2022-07-29T10:42:52;7.30;;;2.47;;
4096;SDS011;2062;50.694;7.246;2022-07-29T10:45:21;6.88;;;2.55;;
4096;SDS011;2062;50.694;7.246;2022-07-29T10:47:48;6.05;;;2.30;;
4096;SDS011;2062;50.694;7.246;2022-07-29T10:50:34;9.00;;;2.50;;
4096;SDS011;2062;50.694;7.246;2022-07-29T10:53:20;6.88;;;2.60;;
4096;SDS011;2062;50.694;7.246;2022-07-29T10:55:47;6.15;;;2.20;;
4096;SDS011;2062;50.694;7.246;2022-07-29T10:58:15;6.40;;;2.40;;
4096;SDS011;2062;50.694;7.246;2022-07-29T11:00:44;5.57;;;2.40;;
4096;SDS011;2062;50.694;7.246;2022-07-29T11:06:13;8.80;;;2.60;;
4096;SDS011;2062;50.694;7.246;2022-07-29T11:08:42;5.63;;;2.58;;
4096;SDS011;2062;50.694;7.246;2022-07-29T11:14:06;6.30;;;2.60;;
4096;SDS011;2062;50.694;7.246;2022-07-29T11:19:27;5.57;;;2.30;;
4096;SDS011;2062;50.694;7.246;2022-07-29T11:21:54;8.57;;;2.63;;
4096;SDS011;2062;50.694;7.246;2022-07-29T11:24:23;7.22;;;2.58;;
4096;SDS011;2062;50.694;7.246;2022-07-29T11:27:12;5.43;;;2.38;;
4096;SDS011;2062;50.694;7.246;2022-07-29T11:29:47;5.73;;;2.37;;
4096;SDS011;2062;50.694;7.246;2022-07-29T11:32:16;6.40;;;2.50;;
4096;SDS011;2062;50.694;7.246;2022-07-29T11:34:45;6.60;;;2.53;;
4096;SDS011;2062;50.694;7.246;2022-07-29T11:37:13;5.15;;;2.40;;
4096;SDS011;2062;50.694;7.246;2022-07-29T11:39:43;6.05;;;2.60;;
4096;SDS011;2062;50.694;7.246;2022-07-29T11:45:04;6.55;;;2.60;;
4096;SDS011;2062;50.694;7.246;2022-07-29T11:47:32;6.15;;;2.58;;
4096;SDS011;2062;50.694;7.246;2022-07-29T11:50:01;7.45;;;2.72;;
4096;SDS011;2062;50.694;7.246;2022-07-29T11:52:32;7.28;;;2.83;;
4096;SDS011;2062;50.694;7.246;2022-07-29T11:55:04;6.77;;;2.73;;
4096;SDS011;2062;50.694;7.246;2022-07-29T11:57:33;12.45;;;2.83;;
4096;SDS011;2062;50.694;7.246;2022-07-29T12:00:03;7.10;;;2.80;;
4096;SDS011;2062;50.694;7.246;2022-07-29T12:02:38;9.75;;;2.80;;
4096;SDS011;2062;50.694;7.246;2022-07-29T12:05:07;13.32;;;3.33;;
4096;SDS011;2062;50.694;7.246;2022-07-29T12:07:35;11.90;;;2.63;;
4096;SDS011;2062;50.694;7.246;2022-07-29T12:10:04;12.20;;;2.97;;
4096;SDS011;2062;50.694;7.246;2022-07-29T12:12:32;13.52;;;3.30;;
4096;SDS011;2062;50.694;7.246;2022-07-29T12:15:10;12.02;;;2.70;;
4096;SDS011;2062;50.694;7.246;2022-07-29T12:17:38;11.27;;;2.97;;
4096;SDS011;2062;50.694;7.246;2022-07-29T12:20:06;6.90;;;2.50;;
4096;SDS011;2062;50.694;7.246;2022-07-29T12:22:34;10.98;;;3.05;;
4096;SDS011;2062;50.694;7.246;2022-07-29T12:25:06;15.38;;;3.00;;
4096;SDS011;2062;50.694;7.246;2022-07-29T12:27:34;7.30;;;2.63;;
4096;SDS011;2062;50.694;7.246;2022-07-29T12:30:03;12.98;;;3.13;;
4096;SDS011;2062;50.694;7.246;2022-07-29T12:32:33;10.13;;;2.70;;
4096;SDS011;2062;50.694;7.246;2022-07-29T12:35:04;9.93;;;2.97;;
4096;SDS011;2062;50.694;7.246;2022-07-29T12:37:33;7.63;;;2.85;;
4096;SDS011;2062;50.694;7.246;2022-07-29T12:40:02;10.52;;;3.10;;
4096;SDS011;2062;50.694;7.246;2022-07-29T12:42:31;7.35;;;2.90;;
4096;SDS011;2062;50.694;7.246;2022-07-29T12:44:58;9.33;;;2.80;;
4096;SDS011;2062;50.694;7.246;2022-07-29T12:47:25;6.53;;;2.97;;
4096;SDS011;2062;50.694;7.246;2022-07-29T12:50:06;7.80;;;2.55;;
4096;SDS011;2062;50.694;7.246;2022-07-29T12:52:35;6.47;;;2.67;;
4096;SDS011;2062;50.694;7.246;2022-07-29T12:55:02;5.90;;;3.00;;
4096;SDS011;2062;50.694;7.246;2022-07-29T12:57:32;7.97;;;2.97;;
4096;SDS011;2062;50.694;7.246;2022-07-29T13:00:11;7.88;;;2.88;;
4096;SDS011;2062;50.694;7.246;2022-07-29T13:02:40;6.80;;;3.20;;
4096;SDS011;2062;50.694;7.246;2022-07-29T13:05:09;6.93;;;3.20;;
4096;SDS011;2062;50.694;7.246;2022-07-29T13:07:37;7.63;;;3.00;;
4096;SDS011;2062;50.694;7.246;2022-07-29T13:10:12;6.23;;;2.87;;
4096;SDS011;2062;50.694;7.246;2022-07-29T13:15:31;7.82;;;3.20;;
4096;SDS011;2062;50.694;7.246;2022-07-29T13:17:59;6.72;;;3.10;;
4096;SDS011;2062;50.694;7.246;2022-07-29T13:20:26;6.70;;;3.00;;
4096;SDS011;2062;50.694;7.246;2022-07-29T13:22:56;6.13;;;2.80;;
4096;SDS011;2062;50.694;7.246;2022-07-29T13:25:24;7.00;;;2.90;;
4096;SDS011;2062;50.694;7.246;2022-07-29T13:27:52;7.63;;;3.00;;
4096;SDS011;2062;50.694;7.246;2022-07-29T13:30:21;7.97;;;3.00;;
4096;SDS011;2062;50.694;7.246;2022-07-29T13:32:49;8.98;;;2.95;;
4096;SDS011;2062;50.694;7.246;2022-07-29T13:35:17;7.33;;;3.10;;
4096;SDS011;2062;50.694;7.246;2022-07-29T13:37:46;9.15;;;2.90;;
4096;SDS011;2062;50.694;7.246;2022-07-29T13:40:13;7.80;;;2.88;;
4096;SDS011;2062;50.694;7.246;2022-07-29T13:42:40;7.53;;;2.97;;
4096;SDS011;2062;50.694;7.246;2022-07-29T13:45:08;9.73;;;3.20;;
4096;SDS011;2062;50.694;7.246;2022-07-29T13:47:38;7.47;;;3.07;;
4096;SDS011;2062;50.694;7.246;2022-07-29T13:50:06;10.68;;;3.50;;
4096;SDS011;2062;50.694;7.246;2022-07-29T13:52:35;13.25;;;3.25;;
4096;SDS011;2062;50.694;7.246;2022-07-29T13:55:03;9.55;;;2.80;;
4096;SDS011;2062;50.694;7.246;2022-07-29T13:57:32;7.60;;;2.92;;
4096;SDS011;2062;50.694;7.246;2022-07-29T14:00:02;8.03;;;3.33;;
4096;SDS011;2062;50.694;7.246;2022-07-29T14:02:30;12.15;;;3.05;;
4096;SDS011;2062;50.694;7.246;2022-07-29T14:04:59;12.73;;;3.17;;
4096;SDS011;2062;50.694;7.246;2022-07-29T14:07:26;9.93;;;3.53;;
4096;SDS011;2062;50.694;7.246;2022-07-29T14:09:53;6.85;;;3.10;;
4096;SDS011;2062;50.694;7.246;2022-07-29T14:12:20;11.53;;;3.17;;
4096;SDS011;2062;50.694;7.246;2022-07-29T14:14:47;9.18;;;3.00;;
4096;SDS011;2062;50.694;7.246;2022-07-29T14:17:15;13.88;;;3.00;;
4096;SDS011;2062;50.694;7.246;2022-07-29T14:19:42;10.85;;;3.33;;
4096;SDS011;2062;50.694;7.246;2022-07-29T14:22:10;13.57;;;3.15;;
4096;SDS011;2062;50.694;7.246;2022-07-29T14:24:38;12.90;;;3.30;;
4096;SDS011;2062;50.694;7.246;2022-07-29T14:27:06;10.45;;;3.17;;
4096;SDS011;2062;50.694;7.246;2022-07-29T14:29:33;9.63;;;2.95;;
4096;SDS011;2062;50.694;7.246;2022-07-29T14:32:00;11.30;;;3.38;;
4096;SDS011;2062;50.694;7.246;2022-07-29T14:34:28;7.32;;;3.00;;
4096;SDS011;2062;50.694;7.246;2022-07-29T14:36:55;9.63;;;3.00;;
4096;SDS011;2062;50.694;7.246;2022-07-29T14:39:23;10.55;;;2.70;;
4096;SDS011;2062;50.694;7.246;2022-07-29T14:41:50;8.50;;;2.90;;
4096;SDS011;2062;50.694;7.246;2022-07-29T14:44:18;10.63;;;3.42;;
4096;SDS011;2062;50.694;7.246;2022-07-29T14:46:45;5.82;;;2.92;;
4096;SDS011;2062;50.694;7.246;2022-07-29T14:49:11;8.27;;;3.13;;
4096;SDS011;2062;50.694;7.246;2022-07-29T14:51:38;7.00;;;3.00;;
4096;SDS011;2062;50.694;7.246;2022-07-29T14:54:05;7.93;;;3.53;;
4096;SDS011;2062;50.694;7.246;2022-07-29T14:56:34;6.97;;;2.63;;
4096;SDS011;2062;50.694;7.246;2022-07-29T14:59:01;8.38;;;3.00;;
4096;SDS011;2062;50.694;7.246;2022-07-29T15:01:28;9.57;;;3.37;;
4096;SDS011;2062;50.694;7.246;2022-07-29T15:03:55;8.82;;;3.28;;
4096;SDS011;2062;50.694;7.246;2022-07-29T15:06:22;8.85;;;3.10;;
4096;SDS011;2062;50.694;7.246;2022-07-29T15:08:48;9.35;;;3.00;;
4096;SDS011;2062;50.694;7.246;2022-07-29T15:11:15;12.07;;;3.10;;
4096;SDS011;2062;50.694;7.246;2022-07-29T15:13:44;10.60;;;3.10;;
4096;SDS011;2062;50.694;7.246;2022-07-29T15:16:11;9.10;;;2.85;;
4096;SDS011;2062;50.694;7.246;2022-07-29T15:18:38;7.45;;;3.25;;
4096;SDS011;2062;50.694;7.246;2022-07-29T15:21:05;6.85;;;3.10;;
4096;SDS011;2062;50.694;7.246;2022-07-29T15:23:32;6.95;;;3.00;;
4096;SDS011;2062;50.694;7.246;2022-07-29T15:26:01;6.57;;;3.13;;
4096;SDS011;2062;50.694;7.246;2022-07-29T15:28:28;8.75;;;3.28;;
4096;SDS011;2062;50.694;7.246;2022-07-29T15:30:57;9.93;;;2.83;;
4096;SDS011;2062;50.694;7.246;2022-07-29T15:33:25;7.88;;;3.33;;
4096;SDS011;2062;50.694;7.246;2022-07-29T15:35:52;10.95;;;3.47;;
4096;SDS011;2062;50.694;7.246;2022-07-29T15:38:21;9.97;;;3.50;;
4096;SDS011;2062;50.694;7.246;2022-07-29T15:40:48;8.80;;;3.30;;
4096;SDS011;2062;50.694;7.246;2022-07-29T15:43:15;8.80;;;3.10;;
4096;SDS011;2062;50.694;7.246;2022-07-29T15:45:42;13.57;;;3.50;;